PWSweather.com
Personal Weather Stations
Station Observations
KCOGRAND2
Redlands, Southcamp Road & Dakota Circle, Grand Junction, CO 81507

Redlands, Southcamp Road & Dakota CircleGrand Junction, CO 81507

Lat: 39.055, Lon: -108.637

Elevation: 4870

Station Type: RadioShack WX200

Latest ConditionsUpdated 5:29:00 PM MDT Saturday, Apr 18, 2015
Currently Today's Max Today's Min Today's Average
Temperature 47.5°F8.6°C 47.5°F8.6°C 33.3°F0.7°C 38.6°F3.7°C
Dew Point 35.6°F2.0°C 39.4°F4.1°C 32.5°F0.3°C 35.6°F2.0°C
Winds 7.0 mph NNE11.3 kmh NNE 8.0 mph 12.9 kmh - 3.2 mph 5.1 kmh
Wind Gusts 11.0 mph17.7 kmh 13.0 mph20.9 kmh - -
Humidity 63% 97% 63% 90%
Pressure 25.01 in846.9 mb 25.07 in849.0 mb 25.01 in846.9 mb -
Hour Temp Dew Point Humidity Winds Wind Gusts Pressure Precip Precip Rate Daily Precip Total
05:29 PM 47.5°F8.6°C 35.6°F2.0°C 63% 7.0 mph NNE11.3 kmh NNE 11.0 mph17.7 kmh 25.01 in846.9 mb 0.00 in0.0 mm 0.00 in0.0 mm 0.00 in0.0 mm
05:24 PM 47.3°F8.5°C 36.5°F2.5°C 66% 8.0 mph N12.9 kmh N 11.2 mph18.0 kmh 25.01 in846.9 mb 0.00 in0.0 mm 0.00 in0.0 mm 0.00 in0.0 mm
05:19 PM 46.2°F7.9°C 35.1°F1.7°C 65% 7.0 mph N11.3 kmh N 12.1 mph19.5 kmh 25.01 in846.9 mb 0.00 in0.0 mm 0.00 in0.0 mm 0.00 in0.0 mm
05:14 PM 45.9°F7.7°C 34.3°F1.3°C 64% 6.0 mph NNW9.7 kmh NNW 10.5 mph16.9 kmh 25.01 in846.9 mb 0.00 in0.0 mm 0.00 in0.0 mm 0.00 in0.0 mm
05:09 PM 46.0°F7.8°C 34.2°F1.2°C 63% 7.0 mph NNW11.3 kmh NNW 11.2 mph18.0 kmh 25.01 in846.9 mb 0.00 in0.0 mm 0.00 in0.0 mm 0.00 in0.0 mm
05:04 PM 46.8°F8.2°C 34.9°F1.6°C 63% 8.0 mph N12.9 kmh N 11.0 mph17.7 kmh 25.01 in846.9 mb 0.00 in0.0 mm 0.00 in0.0 mm 0.00 in0.0 mm
04:59 PM 46.8°F8.2°C 35.2°F1.8°C 64% 8.0 mph N12.9 kmh N 13.0 mph20.9 kmh 25.01 in846.9 mb 0.00 in0.0 mm 0.00 in0.0 mm 0.00 in0.0 mm
04:54 PM 46.8°F8.2°C 35.2°F1.8°C 64% 8.0 mph NNW12.9 kmh NNW 10.5 mph16.9 kmh 25.01 in846.9 mb 0.00 in0.0 mm 0.00 in0.0 mm 0.00 in0.0 mm
04:49 PM 46.8°F8.2°C 34.9°F1.6°C 63% 8.0 mph N12.9 kmh N 11.2 mph18.0 kmh 25.01 in846.9 mb 0.00 in0.0 mm 0.00 in0.0 mm 0.00 in0.0 mm
04:44 PM 47.1°F8.4°C 35.6°F2.0°C 64% 8.0 mph 12.9 kmh 11.0 mph17.7 kmh 25.01 in846.9 mb 0.00 in0.0 mm 0.00 in0.0 mm 0.00 in0.0 mm
04:39 PM 46.9°F8.3°C 35.4°F1.9°C 64% 7.0 mph N11.3 kmh N 11.6 mph18.7 kmh 25.01 in846.9 mb 0.00 in0.0 mm 0.00 in0.0 mm 0.00 in0.0 mm
04:34 PM 47.3°F8.5°C 35.8°F2.1°C 64% 7.0 mph N11.3 kmh N 11.0 mph17.7 kmh 25.01 in846.9 mb 0.00 in0.0 mm 0.00 in0.0 mm 0.00 in0.0 mm
04:29 PM 47.1°F8.4°C 36.7°F2.6°C 67% 6.0 mph N9.7 kmh N 9.6 mph15.4 kmh 25.01 in846.9 mb 0.00 in0.0 mm 0.00 in0.0 mm 0.00 in0.0 mm
04:24 PM 46.0°F7.8°C 36.1°F2.3°C 68% 6.0 mph N9.7 kmh N 10.1 mph16.3 kmh 25.01 in846.9 mb 0.00 in0.0 mm 0.00 in0.0 mm 0.00 in0.0 mm
04:19 PM 46.0°F7.8°C 36.1°F2.3°C 68% 6.0 mph N9.7 kmh N 9.2 mph14.8 kmh 25.01 in846.9 mb 0.00 in0.0 mm 0.00 in0.0 mm 0.00 in0.0 mm
04:14 PM 45.9°F7.7°C 35.6°F2.0°C 67% 6.0 mph N9.7 kmh N 10.1 mph16.3 kmh 25.01 in846.9 mb 0.00 in0.0 mm 0.00 in0.0 mm 0.00 in0.0 mm
04:09 PM 46.0°F7.8°C 36.9°F2.7°C 70% 6.0 mph N9.7 kmh N 8.7 mph14.0 kmh 25.01 in846.9 mb 0.00 in0.0 mm 0.00 in0.0 mm 0.00 in0.0 mm
04:04 PM 45.0°F7.2°C 35.8°F2.1°C 70% 6.0 mph N9.7 kmh N 11.0 mph17.7 kmh 25.01 in846.9 mb 0.00 in0.0 mm 0.00 in0.0 mm 0.00 in0.0 mm
03:59 PM 45.1°F7.3°C 36.7°F2.6°C 72% 5.0 mph N8.0 kmh N 7.4 mph11.9 kmh 25.01 in846.9 mb 0.00 in0.0 mm 0.00 in0.0 mm 0.00 in0.0 mm
03:54 PM 44.8°F7.1°C 36.3°F2.4°C 72% 6.0 mph N9.7 kmh N 10.1 mph16.3 kmh 25.01 in846.9 mb 0.00 in0.0 mm 0.00 in0.0 mm 0.00 in0.0 mm
03:48 PM 44.1°F6.7°C 36.0°F2.2°C 73% 6.0 mph N9.7 kmh N 9.6 mph15.4 kmh 25.01 in846.9 mb 0.00 in0.0 mm 0.00 in0.0 mm 0.00 in0.0 mm
03:43 PM 44.1°F6.7°C 36.0°F2.2°C 73% 6.0 mph N9.7 kmh N 9.6 mph15.4 kmh 25.01 in846.9 mb 0.00 in0.0 mm 0.00 in0.0 mm 0.00 in0.0 mm
03:38 PM 44.2°F6.8°C 36.1°F2.3°C 73% 7.0 mph N11.3 kmh N 10.5 mph16.9 kmh 25.01 in846.9 mb 0.00 in0.0 mm 0.00 in0.0 mm 0.00 in0.0 mm
03:33 PM 44.2°F6.8°C 36.5°F2.5°C 74% 7.0 mph N11.3 kmh N 11.6 mph18.7 kmh 25.01 in846.9 mb 0.00 in0.0 mm 0.00 in0.0 mm 0.00 in0.0 mm
03:28 PM 43.7°F6.5°C 36.3°F2.4°C 75% 8.0 mph 12.9 kmh 11.6 mph18.7 kmh 25.01 in846.9 mb 0.00 in0.0 mm 0.00 in0.0 mm 0.00 in0.0 mm
03:23 PM 43.7°F6.5°C 36.7°F2.6°C 76% 7.0 mph 11.3 kmh 12.1 mph19.5 kmh 25.01 in846.9 mb 0.00 in0.0 mm 0.00 in0.0 mm 0.00 in0.0 mm
03:18 PM 43.5°F6.4°C 36.5°F2.5°C 76% 7.0 mph N11.3 kmh N 11.0 mph17.7 kmh 25.01 in846.9 mb 0.00 in0.0 mm 0.00 in0.0 mm 0.00 in0.0 mm
03:13 PM 43.5°F6.4°C 36.5°F2.5°C 76% 6.0 mph N9.7 kmh N 10.5 mph16.9 kmh 25.01 in846.9 mb 0.00 in0.0 mm 0.00 in0.0 mm 0.00 in0.0 mm
03:08 PM 43.7°F6.5°C 36.7°F2.6°C 76% 6.0 mph NNW9.7 kmh NNW 8.7 mph14.0 kmh 25.01 in846.9 mb 0.00 in0.0 mm 0.00 in0.0 mm 0.00 in0.0 mm
03:03 PM 44.1°F6.7°C 37.4°F3.0°C 77% 6.0 mph N9.7 kmh N 10.5 mph16.9 kmh 25.01 in846.9 mb 0.00 in0.0 mm 0.00 in0.0 mm 0.00 in0.0 mm
02:58 PM 43.7°F6.5°C 37.0°F2.8°C 77% 6.0 mph N9.7 kmh N 9.2 mph14.8 kmh 25.01 in846.9 mb 0.00 in0.0 mm 0.00 in0.0 mm 0.00 in0.0 mm
02:53 PM 44.1°F6.7°C 37.6°F3.1°C 78% 6.0 mph N9.7 kmh N 9.2 mph14.8 kmh 25.01 in846.9 mb 0.00 in0.0 mm 0.00 in0.0 mm 0.00 in0.0 mm
02:48 PM 43.5°F6.4°C 37.0°F2.8°C 78% 5.0 mph N8.0 kmh N 8.3 mph13.4 kmh 25.01 in846.9 mb 0.00 in0.0 mm 0.00 in0.0 mm 0.00 in0.0 mm
02:43 PM 43.9°F6.6°C 38.1°F3.4°C 80% 5.0 mph N8.0 kmh N 10.1 mph16.3 kmh 25.01 in846.9 mb 0.00 in0.0 mm 0.00 in0.0 mm 0.00 in0.0 mm
02:38 PM 43.0°F6.1°C 37.6°F3.1°C 81% 5.0 mph N8.0 kmh N 7.4 mph11.9 kmh 25.01 in846.9 mb 0.00 in0.0 mm 0.00 in0.0 mm 0.00 in0.0 mm
02:33 PM 43.2°F6.2°C 38.1°F3.4°C 82% 4.0 mph N6.4 kmh N 8.7 mph14.0 kmh 25.01 in846.9 mb 0.00 in0.0 mm 0.00 in0.0 mm 0.00 in0.0 mm
02:28 PM 43.9°F6.6°C 39.4°F4.1°C 84% 4.0 mph N6.4 kmh N 7.4 mph11.9 kmh 25.01 in846.9 mb 0.00 in0.0 mm 0.00 in0.0 mm 0.00 in0.0 mm
02:23 PM 43.7°F6.5°C 39.2°F4.0°C 84% 4.0 mph N6.4 kmh N 7.4 mph11.9 kmh 25.01 in846.9 mb 0.00 in0.0 mm 0.00 in0.0 mm 0.00 in0.0 mm
02:18 PM 43.3°F6.3°C 37.9°F3.3°C 81% 3.0 mph NW4.8 kmh NW 6.7 mph10.8 kmh 25.01 in846.9 mb 0.00 in0.0 mm 0.00 in0.0 mm 0.00 in0.0 mm
02:13 PM 43.2°F6.2°C 39.0°F3.9°C 85% 4.0 mph WSW6.4 kmh WSW 6.9 mph11.1 kmh 25.01 in846.9 mb 0.00 in0.0 mm 0.00 in0.0 mm 0.00 in0.0 mm
02:08 PM 43.2°F6.2°C 39.0°F3.9°C 85% 4.0 mph WSW6.4 kmh WSW 5.4 mph8.7 kmh 25.01 in846.9 mb 0.00 in0.0 mm 0.00 in0.0 mm 0.00 in0.0 mm
02:03 PM 43.5°F6.4°C 39.0°F3.9°C 84% 3.0 mph SW4.8 kmh SW 5.8 mph9.3 kmh 25.01 in846.9 mb 0.00 in0.0 mm 0.00 in0.0 mm 0.00 in0.0 mm
01:58 PM 43.7°F6.5°C 38.3°F3.5°C 81% 2.0 mph SW3.2 kmh SW 4.5 mph7.2 kmh 25.01 in846.9 mb 0.00 in0.0 mm 0.00 in0.0 mm 0.00 in0.0 mm
01:53 PM 43.5°F6.4°C 37.8°F3.2°C 80% 2.0 mph SW3.2 kmh SW 5.8 mph9.3 kmh 25.01 in846.9 mb 0.00 in0.0 mm 0.00 in0.0 mm 0.00 in0.0 mm
01:48 PM 42.8°F6.0°C 36.1°F2.3°C 77% 2.0 mph S3.2 kmh S 5.4 mph8.7 kmh 25.01 in846.9 mb 0.00 in0.0 mm 0.00 in0.0 mm 0.00 in0.0 mm
01:43 PM 42.8°F6.0°C 36.1°F2.3°C 77% 4.0 mph S6.4 kmh S 5.8 mph9.3 kmh 25.01 in846.9 mb 0.00 in0.0 mm 0.00 in0.0 mm 0.00 in0.0 mm
01:38 PM 43.0°F6.1°C 37.2°F2.9°C 80% 4.0 mph S6.4 kmh S 6.7 mph10.8 kmh 25.01 in846.9 mb 0.00 in0.0 mm 0.00 in0.0 mm 0.00 in0.0 mm
01:33 PM 42.8°F6.0°C 37.0°F2.8°C 80% 3.0 mph S4.8 kmh S 6.3 mph10.1 kmh 25.01 in846.9 mb 0.00 in0.0 mm 0.00 in0.0 mm 0.00 in0.0 mm
01:28 PM 42.8°F6.0°C 37.0°F2.8°C 80% 2.0 mph S3.2 kmh S 4.5 mph7.2 kmh 25.04 in848.0 mb 0.00 in0.0 mm 0.00 in0.0 mm 0.00 in0.0 mm
01:23 PM 42.3°F5.7°C 36.0°F2.2°C 78% 2.0 mph S3.2 kmh S 3.6 mph5.8 kmh 25.04 in848.0 mb 0.00 in0.0 mm 0.00 in0.0 mm 0.00 in0.0 mm
01:18 PM 42.1°F5.6°C 36.3°F2.4°C 80% 4.0 mph S6.4 kmh S 5.4 mph8.7 kmh 25.04 in848.0 mb 0.00 in0.0 mm 0.00 in0.0 mm 0.00 in0.0 mm
01:13 PM 42.1°F5.6°C 36.3°F2.4°C 80% 4.0 mph S6.4 kmh S 8.3 mph13.4 kmh 25.01 in846.9 mb 0.00 in0.0 mm 0.00 in0.0 mm 0.00 in0.0 mm
01:08 PM 42.3°F5.7°C 37.4°F3.0°C 83% 2.0 mph SW3.2 kmh SW 7.4 mph11.9 kmh 25.01 in846.9 mb 0.00 in0.0 mm 0.00 in0.0 mm 0.00 in0.0 mm
01:03 PM 42.6°F5.9°C 38.5°F3.6°C 85% 2.0 mph WSW3.2 kmh WSW 4.9 mph7.9 kmh 25.01 in846.9 mb 0.00 in0.0 mm 0.00 in0.0 mm 0.00 in0.0 mm
12:58 PM 41.7°F5.4°C 37.6°F3.1°C 85% 3.0 mph WSW4.8 kmh WSW 4.5 mph7.2 kmh 25.04 in848.0 mb 0.00 in0.0 mm 0.00 in0.0 mm 0.00 in0.0 mm
12:53 PM 41.0°F5.0°C 36.3°F2.4°C 83% 4.0 mph WSW6.4 kmh WSW 5.8 mph9.3 kmh 25.04 in848.0 mb 0.00 in0.0 mm 0.00 in0.0 mm 0.00 in0.0 mm
12:48 PM 41.0°F5.0°C 37.2°F2.9°C 86% 3.0 mph WSW4.8 kmh WSW 6.7 mph10.8 kmh 25.04 in848.0 mb 0.00 in0.0 mm 0.00 in0.0 mm 0.00 in0.0 mm
12:43 PM 40.8°F4.9°C 37.2°F2.9°C 87% 3.0 mph WSW4.8 kmh WSW 5.8 mph9.3 kmh 25.04 in848.0 mb 0.00 in0.0 mm 0.00 in0.0 mm 0.00 in0.0 mm
12:38 PM 40.5°F4.7°C 37.2°F2.9°C 88% 3.0 mph SW4.8 kmh SW 7.8 mph12.6 kmh 25.04 in848.0 mb 0.00 in0.0 mm 0.00 in0.0 mm 0.00 in0.0 mm
12:33 PM 40.5°F4.7°C 37.8°F3.2°C 90% 2.0 mph SW3.2 kmh SW 4.5 mph7.2 kmh 25.04 in848.0 mb 0.00 in0.0 mm 0.00 in0.0 mm 0.00 in0.0 mm
12:28 PM 40.5°F4.7°C 38.1°F3.4°C 91% 2.0 mph SW3.2 kmh SW 5.4 mph8.7 kmh 25.04 in848.0 mb 0.00 in0.0 mm 0.00 in0.0 mm 0.00 in0.0 mm
12:23 PM 40.3°F4.6°C 38.1°F3.4°C 92% 2.0 mph SW3.2 kmh SW 3.6 mph5.8 kmh 25.04 in848.0 mb 0.00 in0.0 mm 0.00 in0.0 mm 0.00 in0.0 mm
12:18 PM 39.9°F4.4°C 37.8°F3.2°C 92% 3.0 mph SW4.8 kmh SW 4.9 mph7.9 kmh 25.04 in848.0 mb 0.00 in0.0 mm 0.00 in0.0 mm 0.00 in0.0 mm
12:13 PM 39.9°F4.4°C 38.1°F3.4°C 93% 4.0 mph SW6.4 kmh SW 5.8 mph9.3 kmh 25.04 in848.0 mb 0.00 in0.0 mm 0.00 in0.0 mm 0.00 in0.0 mm
12:08 PM 40.1°F4.5°C 38.5°F3.6°C 94% 4.0 mph SW6.4 kmh SW 6.3 mph10.1 kmh 25.04 in848.0 mb 0.00 in0.0 mm 0.00 in0.0 mm 0.00 in0.0 mm
12:03 PM 40.1°F4.5°C 38.5°F3.6°C 94% 3.0 mph SW4.8 kmh SW 5.8 mph9.3 kmh 25.04 in848.0 mb 0.00 in0.0 mm 0.00 in0.0 mm 0.00 in0.0 mm
11:58 AM 39.9°F4.4°C 38.7°F3.7°C 95% 2.0 mph SW3.2 kmh SW 4.9 mph7.9 kmh 25.04 in848.0 mb 0.00 in0.0 mm 0.00 in0.0 mm 0.00 in0.0 mm
11:53 AM 39.6°F4.2°C 38.3°F3.5°C 95% 3.0 mph SW4.8 kmh SW 5.8 mph9.3 kmh 25.04 in848.0 mb 0.00 in0.0 mm 0.00 in0.0 mm 0.00 in0.0 mm
11:48 AM 39.7°F4.3°C 38.5°F3.6°C 95% 3.0 mph SW4.8 kmh SW 4.9 mph7.9 kmh 25.04 in848.0 mb 0.00 in0.0 mm 0.00 in0.0 mm 0.00 in0.0 mm
11:43 AM 39.4°F4.1°C 38.1°F3.4°C 95% 4.0 mph SSW6.4 kmh SSW 6.3 mph10.1 kmh 25.04 in848.0 mb 0.00 in0.0 mm 0.00 in0.0 mm 0.00 in0.0 mm
11:38 AM 39.0°F3.9°C 37.8°F3.2°C 95% 4.0 mph S6.4 kmh S 5.8 mph9.3 kmh 25.04 in848.0 mb 0.00 in0.0 mm 0.00 in0.0 mm 0.00 in0.0 mm
11:33 AM 38.8°F3.8°C 37.6°F3.1°C 95% 3.0 mph S4.8 kmh S 5.4 mph8.7 kmh 25.04 in848.0 mb 0.00 in0.0 mm 0.00 in0.0 mm 0.00 in0.0 mm
11:28 AM 39.2°F4.0°C 37.9°F3.3°C 95% 3.0 mph S4.8 kmh S 5.4 mph8.7 kmh 25.04 in848.0 mb 0.00 in0.0 mm 0.00 in0.0 mm 0.00 in0.0 mm
11:23 AM 38.7°F3.7°C 37.4°F3.0°C 95% 3.0 mph S4.8 kmh S 5.4 mph8.7 kmh 25.04 in848.0 mb 0.00 in0.0 mm 0.00 in0.0 mm 0.00 in0.0 mm
11:18 AM 38.8°F3.8°C 37.6°F3.1°C 95% 3.0 mph S4.8 kmh S 5.4 mph8.7 kmh 25.04 in848.0 mb 0.00 in0.0 mm 0.00 in0.0 mm 0.00 in0.0 mm
11:13 AM 38.3°F3.5°C 37.0°F2.8°C 95% 4.0 mph S6.4 kmh S 5.4 mph8.7 kmh 25.04 in848.0 mb 0.00 in0.0 mm 0.00 in0.0 mm 0.00 in0.0 mm
11:08 AM 38.5°F3.6°C 36.9°F2.7°C 94% 3.0 mph S4.8 kmh S 5.8 mph9.3 kmh 25.04 in848.0 mb 0.00 in0.0 mm 0.00 in0.0 mm 0.00 in0.0 mm
11:03 AM 38.1°F3.4°C 36.9°F2.7°C 95% 3.0 mph SSE4.8 kmh SSE 4.9 mph7.9 kmh 25.04 in848.0 mb 0.00 in0.0 mm 0.00 in0.0 mm 0.00 in0.0 mm
10:58 AM 37.9°F3.3°C 36.7°F2.6°C 95% 3.0 mph SSE4.8 kmh SSE 4.9 mph7.9 kmh 25.04 in848.0 mb 0.00 in0.0 mm 0.00 in0.0 mm 0.00 in0.0 mm
10:53 AM 37.9°F3.3°C 36.7°F2.6°C 95% 3.0 mph SSE4.8 kmh SSE 4.5 mph7.2 kmh 25.04 in848.0 mb 0.00 in0.0 mm 0.00 in0.0 mm 0.00 in0.0 mm
10:48 AM 37.6°F3.1°C 36.3°F2.4°C 95% 3.0 mph SSE4.8 kmh SSE 5.4 mph8.7 kmh 25.04 in848.0 mb 0.00 in0.0 mm 0.00 in0.0 mm 0.00 in0.0 mm
10:43 AM 37.8°F3.2°C 36.5°F2.5°C 95% 3.0 mph SSE4.8 kmh SSE 5.4 mph8.7 kmh 25.04 in848.0 mb 0.00 in0.0 mm 0.00 in0.0 mm 0.00 in0.0 mm
10:38 AM 37.9°F3.3°C 36.7°F2.6°C 95% 2.0 mph SSE3.2 kmh SSE 4.5 mph7.2 kmh 25.04 in848.0 mb 0.00 in0.0 mm 0.00 in0.0 mm 0.00 in0.0 mm
10:33 AM 37.9°F3.3°C 36.3°F2.4°C 94% 3.0 mph SSE4.8 kmh SSE 4.5 mph7.2 kmh 25.04 in848.0 mb 0.00 in0.0 mm 0.00 in0.0 mm 0.00 in0.0 mm
10:28 AM 37.8°F3.2°C 36.5°F2.5°C 95% 4.0 mph S6.4 kmh S 5.8 mph9.3 kmh 25.04 in848.0 mb 0.00 in0.0 mm 0.00 in0.0 mm 0.00 in0.0 mm
10:23 AM 37.6°F3.1°C 36.3°F2.4°C 95% 4.0 mph S6.4 kmh S 5.8 mph9.3 kmh 25.04 in848.0 mb 0.00 in0.0 mm 0.00 in0.0 mm 0.00 in0.0 mm
10:18 AM 37.6°F3.1°C 36.3°F2.4°C 95% 4.0 mph S6.4 kmh S 5.8 mph9.3 kmh 25.04 in848.0 mb 0.00 in0.0 mm 0.00 in0.0 mm 0.00 in0.0 mm
10:13 AM 37.6°F3.1°C 36.3°F2.4°C 95% 3.0 mph S4.8 kmh S 5.4 mph8.7 kmh 25.04 in848.0 mb 0.00 in0.0 mm 0.00 in0.0 mm 0.00 in0.0 mm
10:08 AM 37.2°F2.9°C 36.0°F2.2°C 95% 2.0 mph S3.2 kmh S 4.9 mph7.9 kmh 25.04 in848.0 mb 0.00 in0.0 mm 0.00 in0.0 mm 0.00 in0.0 mm
10:03 AM 37.0°F2.8°C 35.8°F2.1°C 95% 3.0 mph S4.8 kmh S 4.5 mph7.2 kmh 25.04 in848.0 mb 0.00 in0.0 mm 0.00 in0.0 mm 0.00 in0.0 mm
09:58 AM 37.0°F2.8°C 35.8°F2.1°C 95% 4.0 mph S6.4 kmh S 5.4 mph8.7 kmh 25.04 in848.0 mb 0.00 in0.0 mm 0.00 in0.0 mm 0.00 in0.0 mm
09:53 AM 37.2°F2.9°C 36.0°F2.2°C 95% 4.0 mph S6.4 kmh S 6.3 mph10.1 kmh 25.04 in848.0 mb 0.00 in0.0 mm 0.00 in0.0 mm 0.00 in0.0 mm
09:48 AM 37.2°F2.9°C 36.0°F2.2°C 95% 4.0 mph S6.4 kmh S 6.3 mph10.1 kmh 25.04 in848.0 mb 0.00 in0.0 mm 0.00 in0.0 mm 0.00 in0.0 mm
09:43 AM 37.0°F2.8°C 35.8°F2.1°C 95% 4.0 mph S6.4 kmh S 5.8 mph9.3 kmh 25.04 in848.0 mb 0.00 in0.0 mm 0.00 in0.0 mm 0.00 in0.0 mm
09:38 AM 37.0°F2.8°C 35.8°F2.1°C 95% 4.0 mph S6.4 kmh S 5.8 mph9.3 kmh 25.04 in848.0 mb 0.00 in0.0 mm 0.00 in0.0 mm 0.00 in0.0 mm
09:33 AM 37.2°F2.9°C 36.0°F2.2°C 95% 4.0 mph SSW6.4 kmh SSW 6.7 mph10.8 kmh 25.04 in848.0 mb 0.00 in0.0 mm 0.00 in0.0 mm 0.00 in0.0 mm
09:28 AM 37.0°F2.8°C 35.8°F2.1°C 95% 4.0 mph SW6.4 kmh SW 6.3 mph10.1 kmh 25.04 in848.0 mb 0.00 in0.0 mm 0.00 in0.0 mm 0.00 in0.0 mm
09:23 AM 37.0°F2.8°C 35.8°F2.1°C 95% 4.0 mph SW6.4 kmh SW 5.8 mph9.3 kmh 25.04 in848.0 mb 0.00 in0.0 mm 0.00 in0.0 mm 0.00 in0.0 mm
09:18 AM 37.4°F3.0°C 36.1°F2.3°C 95% 4.0 mph SW6.4 kmh SW 6.3 mph10.1 kmh 25.04 in848.0 mb 0.00 in0.0 mm 0.00 in0.0 mm 0.00 in0.0 mm
09:13 AM 37.6°F3.1°C 36.3°F2.4°C 95% 4.0 mph SW6.4 kmh SW 5.4 mph8.7 kmh 25.04 in848.0 mb 0.00 in0.0 mm 0.00 in0.0 mm 0.00 in0.0 mm
09:08 AM 37.6°F3.1°C 36.3°F2.4°C 95% 4.0 mph SW6.4 kmh SW 6.3 mph10.1 kmh 25.04 in848.0 mb 0.00 in0.0 mm 0.00 in0.0 mm 0.00 in0.0 mm
09:03 AM 37.6°F3.1°C 36.3°F2.4°C 95% 4.0 mph SSE6.4 kmh SSE 5.8 mph9.3 kmh 25.04 in848.0 mb 0.00 in0.0 mm 0.00 in0.0 mm 0.00 in0.0 mm
08:58 AM 37.8°F3.2°C 36.5°F2.5°C 95% 4.0 mph ESE6.4 kmh ESE 6.3 mph10.1 kmh 25.04 in848.0 mb 0.00 in0.0 mm 0.00 in0.0 mm 0.00 in0.0 mm
08:53 AM 37.8°F3.2°C 36.5°F2.5°C 95% 4.0 mph E6.4 kmh E 4.9 mph7.9 kmh 25.04 in848.0 mb 0.00 in0.0 mm 0.00 in0.0 mm 0.00 in0.0 mm
08:48 AM 37.6°F3.1°C 36.3°F2.4°C 95% 4.0 mph ENE6.4 kmh ENE 5.8 mph9.3 kmh 25.04 in848.0 mb 0.00 in0.0 mm 0.00 in0.0 mm 0.00 in0.0 mm
08:43 AM 37.6°F3.1°C 36.3°F2.4°C 95% 3.0 mph NE4.8 kmh NE 4.9 mph7.9 kmh 25.04 in848.0 mb 0.00 in0.0 mm 0.00 in0.0 mm 0.00 in0.0 mm
08:38 AM 37.9°F3.3°C 36.7°F2.6°C 95% 3.0 mph NE4.8 kmh NE 4.9 mph7.9 kmh 25.04 in848.0 mb 0.00 in0.0 mm 0.00 in0.0 mm 0.00 in0.0 mm
08:33 AM 37.9°F3.3°C 36.7°F2.6°C 95% 3.0 mph NE4.8 kmh NE 4.9 mph7.9 kmh 25.04 in848.0 mb 0.00 in0.0 mm 0.00 in0.0 mm 0.00 in0.0 mm
08:28 AM 37.9°F3.3°C 36.7°F2.6°C 95% 2.0 mph NNE3.2 kmh NNE 4.9 mph7.9 kmh 25.04 in848.0 mb 0.00 in0.0 mm 0.00 in0.0 mm 0.00 in0.0 mm
08:23 AM 37.6°F3.1°C 36.3°F2.4°C 95% 2.0 mph NNE3.2 kmh NNE 4.5 mph7.2 kmh 25.04 in848.0 mb 0.00 in0.0 mm 0.00 in0.0 mm 0.00 in0.0 mm
08:18 AM 37.6°F3.1°C 36.3°F2.4°C 95% 1.0 mph NNE1.6 kmh NNE 4.0 mph6.4 kmh 25.04 in848.0 mb 0.00 in0.0 mm 0.00 in0.0 mm 0.00 in0.0 mm
08:13 AM 37.0°F2.8°C 35.4°F1.9°C 94% Calm Calm 3.1 mph5.0 kmh 25.04 in848.0 mb 0.00 in0.0 mm 0.00 in0.0 mm 0.00 in0.0 mm
08:08 AM 36.9°F2.7°C 35.2°F1.8°C 94% Calm Calm 2.7 mph4.3 kmh 25.04 in848.0 mb 0.00 in0.0 mm 0.00 in0.0 mm 0.00 in0.0 mm
08:03 AM 37.0°F2.8°C 35.4°F1.9°C 94% Calm Calm -- 25.04 in848.0 mb 0.00 in0.0 mm 0.00 in0.0 mm 0.00 in0.0 mm
07:58 AM 36.7°F2.6°C 35.1°F1.7°C 94% 1.0 mph NNE1.6 kmh NNE 3.1 mph5.0 kmh 25.07 in849.0 mb 0.00 in0.0 mm 0.00 in0.0 mm 0.00 in0.0 mm
07:53 AM 36.5°F2.5°C 34.9°F1.6°C 94% 2.0 mph NNE3.2 kmh NNE 3.6 mph5.8 kmh 25.07 in849.0 mb 0.00 in0.0 mm 0.00 in0.0 mm 0.00 in0.0 mm
07:48 AM 36.5°F2.5°C 34.9°F1.6°C 94% 1.0 mph NNE1.6 kmh NNE 4.0 mph6.4 kmh 25.07 in849.0 mb 0.00 in0.0 mm 0.00 in0.0 mm 0.00 in0.0 mm
07:43 AM 36.7°F2.6°C 35.1°F1.7°C 94% Calm Calm 2.7 mph4.3 kmh 25.07 in849.0 mb 0.00 in0.0 mm 0.00 in0.0 mm 0.00 in0.0 mm
07:38 AM 36.5°F2.5°C 34.9°F1.6°C 94% Calm Calm 2.7 mph4.3 kmh 25.07 in849.0 mb 0.00 in0.0 mm 0.00 in0.0 mm 0.00 in0.0 mm
07:33 AM 36.1°F2.3°C 34.5°F1.4°C 94% Calm Calm 2.7 mph4.3 kmh 25.07 in849.0 mb 0.00 in0.0 mm 0.00 in0.0 mm 0.00 in0.0 mm
07:28 AM 35.8°F2.1°C 34.2°F1.2°C 94% 1.0 mph NNE1.6 kmh NNE 3.1 mph5.0 kmh 25.07 in849.0 mb 0.00 in0.0 mm 0.00 in0.0 mm 0.00 in0.0 mm
07:23 AM 35.6°F2.0°C 34.0°F1.1°C 94% Calm Calm 3.6 mph5.8 kmh 25.07 in849.0 mb 0.00 in0.0 mm 0.00 in0.0 mm 0.00 in0.0 mm
07:18 AM 35.4°F1.9°C 33.8°F1.0°C 94% Calm Calm 2.7 mph4.3 kmh 25.07 in849.0 mb 0.00 in0.0 mm 0.00 in0.0 mm 0.00 in0.0 mm
07:13 AM 35.4°F1.9°C 33.8°F1.0°C 94% 2.0 mph NNE3.2 kmh NNE 3.6 mph5.8 kmh 25.04 in848.0 mb 0.00 in0.0 mm 0.00 in0.0 mm 0.00 in0.0 mm
07:08 AM 35.4°F1.9°C 33.8°F1.0°C 94% 1.0 mph NNE1.6 kmh NNE 4.0 mph6.4 kmh 25.04 in848.0 mb 0.00 in0.0 mm 0.00 in0.0 mm 0.00 in0.0 mm
07:03 AM 35.4°F1.9°C 33.8°F1.0°C 94% Calm Calm 2.7 mph4.3 kmh 25.04 in848.0 mb 0.00 in0.0 mm 0.00 in0.0 mm 0.00 in0.0 mm
06:58 AM 35.6°F2.0°C 34.0°F1.1°C 94% Calm Calm 2.7 mph4.3 kmh 25.07 in849.0 mb 0.00 in0.0 mm 0.00 in0.0 mm 0.00 in0.0 mm
06:53 AM 35.6°F2.0°C 34.0°F1.1°C 94% 1.0 mph NNE1.6 kmh NNE 3.6 mph5.8 kmh 25.07 in849.0 mb 0.00 in0.0 mm 0.00 in0.0 mm 0.00 in0.0 mm
06:48 AM 35.8°F2.1°C 34.2°F1.2°C 94% 1.0 mph NNE1.6 kmh NNE 3.6 mph5.8 kmh 25.07 in849.0 mb 0.00 in0.0 mm 0.00 in0.0 mm 0.00 in0.0 mm
06:43 AM 35.8°F2.1°C 34.2°F1.2°C 94% 2.0 mph NNE3.2 kmh NNE 4.0 mph6.4 kmh 25.07 in849.0 mb 0.00 in0.0 mm 0.00 in0.0 mm 0.00 in0.0 mm
06:38 AM 35.6°F2.0°C 34.0°F1.1°C 94% 2.0 mph NNE3.2 kmh NNE 4.0 mph6.4 kmh 25.07 in849.0 mb 0.00 in0.0 mm 0.00 in0.0 mm 0.00 in0.0 mm
06:33 AM 35.6°F2.0°C 34.0°F1.1°C 94% 3.0 mph NNE4.8 kmh NNE 5.4 mph8.7 kmh 25.07 in849.0 mb 0.00 in0.0 mm 0.00 in0.0 mm 0.00 in0.0 mm
06:28 AM 35.4°F1.9°C 33.8°F1.0°C 94% 4.0 mph NE6.4 kmh NE 5.4 mph8.7 kmh 25.07 in849.0 mb 0.00 in0.0 mm 0.00 in0.0 mm 0.00 in0.0 mm
06:23 AM 35.4°F1.9°C 33.8°F1.0°C 94% 3.0 mph E4.8 kmh E 5.8 mph9.3 kmh 25.07 in849.0 mb 0.00 in0.0 mm 0.00 in0.0 mm 0.00 in0.0 mm
06:18 AM 35.2°F1.8°C 33.6°F0.9°C 94% 1.0 mph ESE1.6 kmh ESE 4.9 mph7.9 kmh 25.07 in849.0 mb 0.00 in0.0 mm 0.00 in0.0 mm 0.00 in0.0 mm
06:13 AM 35.1°F1.7°C 33.4°F0.8°C 94% 2.0 mph ESE3.2 kmh ESE 4.0 mph6.4 kmh 25.07 in849.0 mb 0.00 in0.0 mm 0.00 in0.0 mm 0.00 in0.0 mm
06:08 AM 34.9°F1.6°C 33.6°F0.9°C 95% 3.0 mph ESE4.8 kmh ESE 4.0 mph6.4 kmh 25.07 in849.0 mb 0.00 in0.0 mm 0.00 in0.0 mm 0.00 in0.0 mm
06:03 AM 34.5°F1.4°C 33.4°F0.8°C 96% 3.0 mph ESE4.8 kmh ESE 5.4 mph8.7 kmh 25.07 in849.0 mb 0.00 in0.0 mm 0.00 in0.0 mm 0.00 in0.0 mm
05:58 AM 34.5°F1.4°C 33.4°F0.8°C 96% 2.0 mph ESE3.2 kmh ESE 4.0 mph6.4 kmh 25.07 in849.0 mb 0.00 in0.0 mm 0.00 in0.0 mm 0.00 in0.0 mm
05:53 AM 34.3°F1.3°C 33.3°F0.7°C 96% 4.0 mph SE6.4 kmh SE 5.8 mph9.3 kmh 25.07 in849.0 mb 0.00 in0.0 mm 0.00 in0.0 mm 0.00 in0.0 mm
05:48 AM 34.3°F1.3°C 33.3°F0.7°C 96% 3.0 mph SE4.8 kmh SE 5.4 mph8.7 kmh 25.07 in849.0 mb 0.00 in0.0 mm 0.00 in0.0 mm 0.00 in0.0 mm
05:43 AM 34.3°F1.3°C 33.6°F0.9°C 97% 1.0 mph SE1.6 kmh SE 5.8 mph9.3 kmh 25.07 in849.0 mb 0.00 in0.0 mm 0.00 in0.0 mm 0.00 in0.0 mm
05:38 AM 34.0°F1.1°C 33.3°F0.7°C 97% 1.0 mph SE1.6 kmh SE 3.6 mph5.8 kmh 25.07 in849.0 mb 0.00 in0.0 mm 0.00 in0.0 mm 0.00 in0.0 mm
05:33 AM 34.0°F1.1°C 33.3°F0.7°C 97% 2.0 mph SE3.2 kmh SE 4.0 mph6.4 kmh 25.07 in849.0 mb 0.00 in0.0 mm 0.00 in0.0 mm 0.00 in0.0 mm
05:28 AM 34.0°F1.1°C 33.3°F0.7°C 97% 1.0 mph SE1.6 kmh SE 3.6 mph5.8 kmh 25.07 in849.0 mb 0.00 in0.0 mm 0.00 in0.0 mm 0.00 in0.0 mm
05:23 AM 33.8°F1.0°C 33.1°F0.6°C 97% Calm Calm 3.1 mph5.0 kmh 25.07 in849.0 mb 0.00 in0.0 mm 0.00 in0.0 mm 0.00 in0.0 mm
05:18 AM 33.8°F1.0°C 33.1°F0.6°C 97% Calm Calm 2.7 mph4.3 kmh 25.07 in849.0 mb 0.00 in0.0 mm 0.00 in0.0 mm 0.00 in0.0 mm
05:13 AM 33.8°F1.0°C 33.1°F0.6°C 97% Calm Calm 2.7 mph4.3 kmh 25.07 in849.0 mb 0.00 in0.0 mm 0.00 in0.0 mm 0.00 in0.0 mm
05:08 AM 34.0°F1.1°C 33.3°F0.7°C 97% Calm Calm -- 25.07 in849.0 mb 0.00 in0.0 mm 0.00 in0.0 mm 0.00 in0.0 mm
05:03 AM 34.0°F1.1°C 33.3°F0.7°C 97% Calm Calm -- 25.07 in849.0 mb 0.00 in0.0 mm 0.00 in0.0 mm 0.00 in0.0 mm
04:58 AM 34.0°F1.1°C 33.3°F0.7°C 97% Calm Calm -- 25.07 in849.0 mb 0.00 in0.0 mm 0.00 in0.0 mm 0.00 in0.0 mm
04:53 AM 33.8°F1.0°C 33.1°F0.6°C 97% 3.0 mph SSE4.8 kmh SSE 4.5 mph7.2 kmh 25.07 in849.0 mb 0.00 in0.0 mm 0.00 in0.0 mm 0.00 in0.0 mm
04:48 AM 33.8°F1.0°C 33.1°F0.6°C 97% 5.0 mph S8.0 kmh S 6.7 mph10.8 kmh 25.07 in849.0 mb 0.00 in0.0 mm 0.00 in0.0 mm 0.00 in0.0 mm
04:43 AM 34.0°F1.1°C 33.3°F0.7°C 97% 7.0 mph S11.3 kmh S 9.2 mph14.8 kmh 25.07 in849.0 mb 0.00 in0.0 mm 0.00 in0.0 mm 0.00 in0.0 mm
04:38 AM 33.6°F0.9°C 32.9°F0.5°C 97% 7.0 mph S11.3 kmh S 11.2 mph18.0 kmh 25.07 in849.0 mb 0.00 in0.0 mm 0.00 in0.0 mm 0.00 in0.0 mm
04:33 AM 33.3°F0.7°C 32.5°F0.3°C 97% 5.0 mph SW8.0 kmh SW 8.7 mph14.0 kmh 25.07 in849.0 mb 0.00 in0.0 mm 0.00 in0.0 mm 0.00 in0.0 mm
04:28 AM 33.8°F1.0°C 33.1°F0.6°C 97% 3.0 mph NW4.8 kmh NW 6.3 mph10.1 kmh 25.04 in848.0 mb 0.00 in0.0 mm 0.00 in0.0 mm 0.00 in0.0 mm
04:23 AM 34.2°F1.2°C 33.4°F0.8°C 97% 1.0 mph NW1.6 kmh NW 4.5 mph7.2 kmh 25.04 in848.0 mb 0.00 in0.0 mm 0.00 in0.0 mm 0.00 in0.0 mm
04:18 AM 34.5°F1.4°C 33.8°F1.0°C 97% Calm Calm 3.1 mph5.0 kmh 25.04 in848.0 mb 0.00 in0.0 mm 0.00 in0.0 mm 0.00 in0.0 mm
04:13 AM 34.3°F1.3°C 33.6°F0.9°C 97% Calm Calm 2.7 mph4.3 kmh 25.04 in848.0 mb 0.00 in0.0 mm 0.00 in0.0 mm 0.00 in0.0 mm
04:08 AM 34.2°F1.2°C 33.4°F0.8°C 97% Calm Calm 3.1 mph5.0 kmh 25.04 in848.0 mb 0.00 in0.0 mm 0.00 in0.0 mm 0.00 in0.0 mm
04:02 AM 34.3°F1.3°C 33.6°F0.9°C 97% Calm Calm -- 25.04 in848.0 mb 0.00 in0.0 mm 0.00 in0.0 mm 0.00 in0.0 mm
03:57 AM 34.3°F1.3°C 33.6°F0.9°C 97% Calm Calm 3.1 mph5.0 kmh 25.07 in849.0 mb 0.00 in0.0 mm 0.00 in0.0 mm 0.00 in0.0 mm
03:52 AM 35.1°F1.7°C 34.0°F1.1°C 96% 1.0 mph NW1.6 kmh NW 3.1 mph5.0 kmh 25.07 in849.0 mb 0.00 in0.0 mm 0.00 in0.0 mm 0.00 in0.0 mm
03:47 AM 35.1°F1.7°C 34.0°F1.1°C 96% 1.0 mph NW1.6 kmh NW 3.1 mph5.0 kmh 25.07 in849.0 mb 0.00 in0.0 mm 0.00 in0.0 mm 0.00 in0.0 mm
03:42 AM 34.3°F1.3°C 33.6°F0.9°C 97% Calm Calm 3.1 mph5.0 kmh 25.04 in848.0 mb 0.00 in0.0 mm 0.00 in0.0 mm 0.00 in0.0 mm
03:37 AM 34.5°F1.4°C 33.8°F1.0°C 97% Calm Calm 2.7 mph4.3 kmh 25.04 in848.0 mb 0.00 in0.0 mm 0.00 in0.0 mm 0.00 in0.0 mm
03:32 AM 34.7°F1.5°C 33.6°F0.9°C 96% Calm Calm 3.1 mph5.0 kmh 25.04 in848.0 mb 0.00 in0.0 mm 0.00 in0.0 mm 0.00 in0.0 mm
03:27 AM 35.1°F1.7°C 34.0°F1.1°C 96% Calm Calm 4.0 mph6.4 kmh 25.04 in848.0 mb 0.00 in0.0 mm 0.00 in0.0 mm 0.00 in0.0 mm
03:22 AM 35.4°F1.9°C 34.3°F1.3°C 96% 1.0 mph W1.6 kmh W 3.1 mph5.0 kmh 25.04 in848.0 mb 0.00 in0.0 mm 0.00 in0.0 mm 0.00 in0.0 mm
03:17 AM 35.6°F2.0°C 34.5°F1.4°C 96% 3.0 mph WSW4.8 kmh WSW 4.5 mph7.2 kmh 25.04 in848.0 mb 0.00 in0.0 mm 0.00 in0.0 mm 0.00 in0.0 mm
03:12 AM 35.6°F2.0°C 34.5°F1.4°C 96% 4.0 mph WSW6.4 kmh WSW 4.9 mph7.9 kmh 25.04 in848.0 mb 0.00 in0.0 mm 0.00 in0.0 mm 0.00 in0.0 mm
03:07 AM 35.8°F2.1°C 34.7°F1.5°C 96% 4.0 mph WNW6.4 kmh WNW 6.7 mph10.8 kmh 25.04 in848.0 mb 0.00 in0.0 mm 0.00 in0.0 mm 0.00 in0.0 mm
03:02 AM 36.0°F2.2°C 34.9°F1.6°C 96% 4.0 mph N6.4 kmh N 7.4 mph11.9 kmh 25.04 in848.0 mb 0.00 in0.0 mm 0.00 in0.0 mm 0.00 in0.0 mm
02:57 AM 36.0°F2.2°C 34.9°F1.6°C 96% 4.0 mph N6.4 kmh N 5.8 mph9.3 kmh 25.07 in849.0 mb 0.00 in0.0 mm 0.00 in0.0 mm 0.00 in0.0 mm
02:52 AM 35.8°F2.1°C 34.7°F1.5°C 96% 4.0 mph N6.4 kmh N 5.4 mph8.7 kmh 25.07 in849.0 mb 0.00 in0.0 mm 0.00 in0.0 mm 0.00 in0.0 mm
02:47 AM 36.0°F2.2°C 34.9°F1.6°C 96% 4.0 mph N6.4 kmh N 7.8 mph12.6 kmh 25.07 in849.0 mb 0.00 in0.0 mm 0.00 in0.0 mm 0.00 in0.0 mm
02:42 AM 36.3°F2.4°C 35.2°F1.8°C 96% 5.0 mph NNW8.0 kmh NNW 6.9 mph11.1 kmh 25.07 in849.0 mb 0.00 in0.0 mm 0.00 in0.0 mm 0.00 in0.0 mm
02:37 AM 36.1°F2.3°C 35.1°F1.7°C 96% 4.0 mph N6.4 kmh N 6.3 mph10.1 kmh 25.07 in849.0 mb 0.00 in0.0 mm 0.00 in0.0 mm 0.00 in0.0 mm
02:32 AM 36.3°F2.4°C 35.2°F1.8°C 96% 3.0 mph N4.8 kmh N 5.8 mph9.3 kmh 25.07 in849.0 mb 0.00 in0.0 mm 0.00 in0.0 mm 0.00 in0.0 mm
02:27 AM 36.1°F2.3°C 35.1°F1.7°C 96% 3.0 mph N4.8 kmh N 4.0 mph6.4 kmh 25.07 in849.0 mb 0.00 in0.0 mm 0.00 in0.0 mm 0.00 in0.0 mm
02:22 AM 36.3°F2.4°C 35.2°F1.8°C 96% 3.0 mph N4.8 kmh N 4.5 mph7.2 kmh 25.07 in849.0 mb 0.00 in0.0 mm 0.00 in0.0 mm 0.00 in0.0 mm
02:17 AM 36.5°F2.5°C 35.4°F1.9°C 96% 3.0 mph N4.8 kmh N 4.0 mph6.4 kmh 25.07 in849.0 mb 0.00 in0.0 mm 0.00 in0.0 mm 0.00 in0.0 mm
02:12 AM 36.7°F2.6°C 35.6°F2.0°C 96% 3.0 mph N4.8 kmh N 4.9 mph7.9 kmh 25.07 in849.0 mb 0.00 in0.0 mm 0.00 in0.0 mm 0.00 in0.0 mm
02:07 AM 36.5°F2.5°C 35.4°F1.9°C 96% 3.0 mph N4.8 kmh N 4.5 mph7.2 kmh 25.07 in849.0 mb 0.00 in0.0 mm 0.00 in0.0 mm 0.00 in0.0 mm
02:02 AM 36.7°F2.6°C 35.6°F2.0°C 96% 3.0 mph N4.8 kmh N 4.0 mph6.4 kmh 25.07 in849.0 mb 0.00 in0.0 mm 0.00 in0.0 mm 0.00 in0.0 mm
01:57 AM 36.7°F2.6°C 35.6°F2.0°C 96% 4.0 mph N6.4 kmh N 5.4 mph8.7 kmh 25.07 in849.0 mb 0.00 in0.0 mm 0.00 in0.0 mm 0.00 in0.0 mm
01:52 AM 36.7°F2.6°C 35.6°F2.0°C 96% 4.0 mph N6.4 kmh N 5.4 mph8.7 kmh 25.07 in849.0 mb 0.00 in0.0 mm 0.00 in0.0 mm 0.00 in0.0 mm
01:47 AM 36.3°F2.4°C 35.2°F1.8°C 96% 4.0 mph NE6.4 kmh NE 4.9 mph7.9 kmh 25.07 in849.0 mb 0.00 in0.0 mm 0.00 in0.0 mm 0.00 in0.0 mm
01:42 AM 36.5°F2.5°C 35.4°F1.9°C 96% 4.0 mph NE6.4 kmh NE 7.4 mph11.9 kmh 25.07 in849.0 mb 0.00 in0.0 mm 0.00 in0.0 mm 0.00 in0.0 mm
01:37 AM 36.3°F2.4°C 35.2°F1.8°C 96% 4.0 mph NNE6.4 kmh NNE 5.8 mph9.3 kmh 25.07 in849.0 mb 0.00 in0.0 mm 0.00 in0.0 mm 0.00 in0.0 mm
01:32 AM 36.3°F2.4°C 35.2°F1.8°C 96% 4.0 mph NNE6.4 kmh NNE 5.4 mph8.7 kmh 25.07 in849.0 mb 0.00 in0.0 mm 0.00 in0.0 mm 0.00 in0.0 mm
01:27 AM 36.3°F2.4°C 35.2°F1.8°C 96% 3.0 mph NNE4.8 kmh NNE 4.5 mph7.2 kmh 25.07 in849.0 mb 0.00 in0.0 mm 0.00 in0.0 mm 0.00 in0.0 mm
01:22 AM 36.3°F2.4°C 35.2°F1.8°C 96% 1.0 mph NNE1.6 kmh NNE 4.5 mph7.2 kmh 25.07 in849.0 mb 0.00 in0.0 mm 0.00 in0.0 mm 0.00 in0.0 mm
01:17 AM 36.3°F2.4°C 35.2°F1.8°C 96% 1.0 mph NNE1.6 kmh NNE 2.7 mph4.3 kmh 25.07 in849.0 mb 0.00 in0.0 mm 0.00 in0.0 mm 0.00 in0.0 mm
01:12 AM 36.3°F2.4°C 35.2°F1.8°C 96% 2.0 mph NNE3.2 kmh NNE 3.6 mph5.8 kmh 25.07 in849.0 mb 0.00 in0.0 mm 0.00 in0.0 mm 0.00 in0.0 mm
01:07 AM 36.3°F2.4°C 35.2°F1.8°C 96% 2.0 mph N3.2 kmh N 4.0 mph6.4 kmh 25.07 in849.0 mb 0.00 in0.0 mm 0.00 in0.0 mm 0.00 in0.0 mm
01:02 AM 36.5°F2.5°C 35.4°F1.9°C 96% 3.0 mph N4.8 kmh N 4.5 mph7.2 kmh 25.07 in849.0 mb 0.00 in0.0 mm 0.00 in0.0 mm 0.00 in0.0 mm
12:57 AM 36.5°F2.5°C 35.4°F1.9°C 96% 3.0 mph N4.8 kmh N 5.8 mph9.3 kmh 25.07 in849.0 mb 0.00 in0.0 mm 0.00 in0.0 mm 0.00 in0.0 mm
12:52 AM 36.7°F2.6°C 35.6°F2.0°C 96% 3.0 mph NNW4.8 kmh NNW 5.8 mph9.3 kmh 25.07 in849.0 mb 0.00 in0.0 mm 0.00 in0.0 mm 0.00 in0.0 mm
12:47 AM 36.7°F2.6°C 35.6°F2.0°C 96% 3.0 mph NW4.8 kmh NW 4.9 mph7.9 kmh 25.07 in849.0 mb 0.00 in0.0 mm 0.00 in0.0 mm 0.00 in0.0 mm
12:42 AM 36.5°F2.5°C 35.2°F1.8°C 95% 3.0 mph WNW4.8 kmh WNW 5.4 mph8.7 kmh 25.07 in849.0 mb 0.00 in0.0 mm 0.00 in0.0 mm 0.00 in0.0 mm
12:37 AM 36.1°F2.3°C 35.1°F1.7°C 96% 3.0 mph WNW4.8 kmh WNW 4.5 mph7.2 kmh 25.07 in849.0 mb 0.00 in0.0 mm 0.00 in0.0 mm 0.00 in0.0 mm
12:32 AM 36.0°F2.2°C 34.9°F1.6°C 96% 2.0 mph WNW3.2 kmh WNW 4.0 mph6.4 kmh 25.07 in849.0 mb 0.00 in0.0 mm 0.00 in0.0 mm 0.00 in0.0 mm
12:27 AM 35.8°F2.1°C 34.5°F1.4°C 95% 1.0 mph NW1.6 kmh NW 4.0 mph6.4 kmh 25.07 in849.0 mb 0.00 in0.0 mm 0.00 in0.0 mm 0.00 in0.0 mm
12:22 AM 35.4°F1.9°C 34.2°F1.2°C 95% Calm Calm 3.6 mph5.8 kmh 25.07 in849.0 mb 0.00 in0.0 mm 0.00 in0.0 mm 0.00 in0.0 mm
12:17 AM 35.4°F1.9°C 34.2°F1.2°C 95% Calm Calm -- 25.07 in849.0 mb 0.00 in0.0 mm 0.00 in0.0 mm 0.00 in0.0 mm
12:12 AM 35.4°F1.9°C 34.2°F1.2°C 95% 1.0 mph NW1.6 kmh NW 3.6 mph5.8 kmh 25.07 in849.0 mb 0.00 in0.0 mm 0.00 in0.0 mm 0.00 in0.0 mm
12:07 AM 35.6°F2.0°C 34.5°F1.4°C 96% 1.0 mph WNW1.6 kmh WNW 4.0 mph6.4 kmh 25.07 in849.0 mb 0.00 in0.0 mm 0.00 in0.0 mm 0.00 in0.0 mm
12:02 AM 36.0°F2.2°C 34.9°F1.6°C 96% 2.0 mph WNW3.2 kmh WNW 4.0 mph6.4 kmh 25.07 in849.0 mb 0.00 in0.0 mm 0.00 in0.0 mm 0.00 in0.0 mm